Leiters Ford, Indiana
Current Conditions -  °F | °C
As of 4:55 PM on Wednesday 28 Jan 2015 (Local Time) from KRCR Reporting Station
Clear Clear  
Wind Chill: 24°   Ceiling: Unl
Heat Index: 32°   Visibility: 10mi
Dew Point: 21°   Wind: 10mph
Humidity: 64%   Direction: 140°SE
Pressure: 30.18"   Gusts: NA
Location:  41.12°N, 86.39°W
Report Text: KRCR 282155Z AUTO 14009KT 10SM CLR 00/M06 A3018 RMK AO2
Loading
Personal Weather Stations






























Interactive Weather Map New forecast layout! Learn more

10-Day Weather Forecast

Advertisements
Track Severe Weather on mobile